createdAt,value
2023-01-09T00:01:29.423Z,10.57
2023-01-09T00:05:31.179Z,11.13
2023-01-09T00:09:32.900Z,11.00
2023-01-09T00:13:34.985Z,10.97
2023-01-09T00:17:36.731Z,10.37
2023-01-09T00:21:38.471Z,10.93
2023-01-09T00:25:42.476Z,11.93
2023-01-09T00:29:49.454Z,11.33
2023-01-09T00:34:03.208Z,11.57
2023-01-09T00:38:05.008Z,10.73
2023-01-09T00:42:08.418Z,10.43
2023-01-09T00:46:10.229Z,11.13
2023-01-09T00:50:19.966Z,11.33
2023-01-09T00:54:21.895Z,11.30
2023-01-09T00:58:23.624Z,11.40
2023-01-09T01:02:25.727Z,11.27
2023-01-09T01:06:46.042Z,12.00
2023-01-09T01:10:48.127Z,11.43
2023-01-09T01:14:49.970Z,11.90
2023-01-09T01:18:51.977Z,11.63
2023-01-09T01:22:53.727Z,11.57
2023-01-09T01:26:55.530Z,11.10
2023-01-09T01:30:57.466Z,11.40
2023-01-09T01:34:59.310Z,12.03
2023-01-09T01:39:01.095Z,12.20
2023-01-09T01:43:02.843Z,11.70
2023-01-09T01:47:04.653Z,11.47
2023-01-09T01:51:06.425Z,10.77
2023-01-09T01:55:08.953Z,11.10
2023-01-09T01:59:25.069Z,11.73
2023-01-09T02:03:28.417Z,10.87
2023-01-09T02:07:30.296Z,10.77
2023-01-09T02:11:32.016Z,9.97
2023-01-09T02:16:12.061Z,10.60
2023-01-09T02:20:38.723Z,11.17
2023-01-09T02:25:15.905Z,10.33
2023-01-09T02:29:31.698Z,10.10
2023-01-09T02:34:02.604Z,9.97
2023-01-09T02:38:41.552Z,10.67
2023-01-09T02:42:43.254Z,9.83
2023-01-09T02:46:45.035Z,10.70
2023-01-09T02:50:58.949Z,9.90
2023-01-09T02:55:33.196Z,9.67
2023-01-09T02:59:51.201Z,10.00
2023-01-09T03:04:11.072Z,10.40
2023-01-09T03:08:21.256Z,10.30
2023-01-09T03:12:24.668Z,11.90
2023-01-09T03:16:33.547Z,10.63
2023-01-09T03:20:35.279Z,11.43
2023-01-09T03:24:39.199Z,11.07
2023-01-09T03:28:40.898Z,10.97
2023-01-09T03:32:42.703Z,11.77
2023-01-09T03:36:44.673Z,11.83
2023-01-09T03:40:46.420Z,11.57
2023-01-09T03:44:49.448Z,11.40
2023-01-09T03:48:51.363Z,11.07
2023-01-09T03:52:56.259Z,11.87
2023-01-09T03:56:58.397Z,10.47
2023-01-09T04:01:02.197Z,12.80
2023-01-09T04:05:04.374Z,13.10
2023-01-09T04:09:06.293Z,12.43
2023-01-09T04:13:08.121Z,12.13
2023-01-09T04:17:09.892Z,11.80
2023-01-09T04:21:11.711Z,12.53
2023-01-09T04:25:13.627Z,12.00
2023-01-09T04:29:15.477Z,12.10
2023-01-09T04:33:17.383Z,11.67
2023-01-09T04:37:19.252Z,12.07
2023-01-09T04:41:39.359Z,11.87
2023-01-09T04:45:41.087Z,11.27
2023-01-09T04:49:42.855Z,11.63
2023-01-09T04:53:44.622Z,11.13
2023-01-09T04:57:46.416Z,11.03
2023-01-09T05:01:48.338Z,11.30
2023-01-09T05:05:50.243Z,10.37
2023-01-09T05:09:52.063Z,10.97
2023-01-09T05:13:54.099Z,11.50
2023-01-09T05:17:55.842Z,11.60
2023-01-09T05:21:58.994Z,11.13
2023-01-09T05:26:00.916Z,10.77
2023-01-09T05:30:02.773Z,10.00
2023-01-09T05:34:04.573Z,10.93
2023-01-09T05:38:06.266Z,10.33
2023-01-09T05:42:29.603Z,11.00
2023-01-09T05:46:34.910Z,10.87
2023-01-09T05:50:36.799Z,10.87
2023-01-09T05:54:38.654Z,10.67
2023-01-09T05:58:40.626Z,10.23
2023-01-09T06:02:42.669Z,10.50
2023-01-09T06:06:44.736Z,10.00
2023-01-09T06:10:47.415Z,9.47
2023-01-09T06:14:49.615Z,9.43
2023-01-09T06:18:51.782Z,8.87
2023-01-09T06:23:04.612Z,9.90
2023-01-09T06:27:09.887Z,9.60
2023-01-09T06:31:11.807Z,8.77
2023-01-09T06:35:14.881Z,10.23
2023-01-09T06:39:16.682Z,9.13
2023-01-09T06:43:18.436Z,9.03
2023-01-09T06:47:20.094Z,8.20
2023-01-09T06:51:21.865Z,7.53
2023-01-09T06:55:23.812Z,8.27
2023-01-09T06:59:26.033Z,7.70
2023-01-09T07:03:27.754Z,7.30
2023-01-09T07:07:29.492Z,7.73
2023-01-09T07:11:31.447Z,7.70
2023-01-09T07:15:33.165Z,7.50
2023-01-09T07:19:35.081Z,8.00
2023-01-09T07:23:36.785Z,8.53
2023-01-09T07:27:38.651Z,7.87
2023-01-09T07:31:40.500Z,7.93
2023-01-09T07:35:42.310Z,7.70
2023-01-09T07:39:44.382Z,7.73
2023-01-09T07:43:46.148Z,8.53
2023-01-09T07:47:47.870Z,8.27
2023-01-09T07:51:49.673Z,9.23
2023-01-09T07:55:51.397Z,9.60
2023-01-09T07:59:53.170Z,9.73
2023-01-09T08:03:54.902Z,9.50
2023-01-09T08:07:56.636Z,9.13
2023-01-09T08:11:58.419Z,8.87
2023-01-09T08:16:00.595Z,8.10
2023-01-09T08:20:02.800Z,9.93
2023-01-09T08:24:05.125Z,9.13
2023-01-09T08:28:06.858Z,9.00
2023-01-09T08:32:08.665Z,10.57
2023-01-09T08:36:10.602Z,11.37
2023-01-09T08:40:13.605Z,10.50
2023-01-09T08:44:33.922Z,8.70
2023-01-09T08:48:35.684Z,8.87
2023-01-09T08:52:37.476Z,8.03
2023-01-09T08:56:39.251Z,4.17
2023-01-09T09:00:41.077Z,1.83
2023-01-09T09:04:42.828Z,2.07
2023-01-09T09:08:44.561Z,1.73
2023-01-09T09:12:48.751Z,2.00
2023-01-09T09:16:50.919Z,1.90
2023-01-09T09:20:52.659Z,1.80
2023-01-09T09:24:54.435Z,1.77
2023-01-09T09:28:56.222Z,1.63
2023-01-09T09:32:58.299Z,1.60
2023-01-09T09:37:00.168Z,1.60
2023-01-09T09:41:59.107Z,1.60
2023-01-09T09:46:46.641Z,1.80
2023-01-09T09:50:51.404Z,1.80
2023-01-09T09:54:53.182Z,2.00
2023-01-09T09:59:00.004Z,1.87
2023-01-09T10:03:08.098Z,1.90
2023-01-09T10:07:22.733Z,1.70
2023-01-09T10:11:47.328Z,2.20
2023-01-09T10:16:19.353Z,1.70
2023-01-09T10:20:38.591Z,1.50
2023-01-09T10:25:21.938Z,1.80
2023-01-09T10:29:54.819Z,1.80
2023-01-09T10:34:38.421Z,1.83
2023-01-09T10:38:43.264Z,1.70
2023-01-09T10:42:59.035Z,1.43
2023-01-09T10:47:00.845Z,1.10
2023-01-09T10:51:17.648Z,1.00
2023-01-09T10:55:42.039Z,1.37
2023-01-09T10:59:43.772Z,0.90
2023-01-09T11:03:48.604Z,0.87
2023-01-09T11:08:01.135Z,0.80
2023-01-09T11:12:40.946Z,0.80
2023-01-09T11:17:06.316Z,0.80
2023-01-09T11:21:40.204Z,0.73
2023-01-09T11:25:42.597Z,0.80
2023-01-09T11:29:44.400Z,0.87
2023-01-09T11:33:47.882Z,0.57
2023-01-09T11:38:02.496Z,0.90
2023-01-09T11:42:06.538Z,1.13
2023-01-09T11:46:11.812Z,0.60
2023-01-09T11:50:21.958Z,0.53
2023-01-09T11:54:28.572Z,0.50
2023-01-09T11:58:35.099Z,0.60
2023-01-09T12:03:52.767Z,0.50
2023-01-09T12:08:15.606Z,0.50
2023-01-09T12:12:43.873Z,0.50
2023-01-09T12:17:22.905Z,0.50
2023-01-09T12:21:34.812Z,0.60
2023-01-09T12:26:00.776Z,0.33
2023-01-09T12:31:01.393Z,0.30
2023-01-09T12:35:22.620Z,1.17
2023-01-09T12:40:04.999Z,0.70
2023-01-09T12:44:51.794Z,0.60
2023-01-09T12:49:14.501Z,0.50
2023-01-09T12:53:28.978Z,0.40
2023-01-09T12:57:34.749Z,0.40
2023-01-09T13:01:42.141Z,0.40
2023-01-09T13:05:51.571Z,0.53
2023-01-09T13:10:19.559Z,0.40
2023-01-09T13:14:39.765Z,0.50
2023-01-09T13:18:56.205Z,0.37
2023-01-09T13:22:58.169Z,0.40
2023-01-09T13:27:07.382Z,0.40
2023-01-09T13:31:27.974Z,0.70
2023-01-09T13:35:32.336Z,0.60
2023-01-09T13:39:37.955Z,0.70
2023-01-09T13:44:00.899Z,0.80
2023-01-09T13:48:09.102Z,0.67
2023-01-09T13:52:40.377Z,1.00
2023-01-09T13:57:17.077Z,0.50
2023-01-09T14:01:24.918Z,0.70
2023-01-09T14:05:27.150Z,0.37
2023-01-09T14:09:29.130Z,0.50
2023-01-09T14:13:43.505Z,0.67
2023-01-09T14:17:45.484Z,0.50
2023-01-09T14:21:53.119Z,0.43
2023-01-09T14:25:55.625Z,0.83
2023-01-09T14:30:27.451Z,0.60
2023-01-09T14:34:32.498Z,0.70
2023-01-09T14:38:56.346Z,1.10
2023-01-09T14:43:04.980Z,0.67
2023-01-09T14:47:24.195Z,0.83
2023-01-09T14:51:37.468Z,0.50
2023-01-09T14:55:57.938Z,0.63
2023-01-09T15:04:43.228Z,0.60
2023-01-09T15:08:48.196Z,0.80
2023-01-09T15:12:52.978Z,0.93
2023-01-09T15:16:54.735Z,0.67
2023-01-09T15:21:00.610Z,0.70
2023-01-09T15:25:30.544Z,1.00
2023-01-09T15:29:35.884Z,0.77
2023-01-09T15:33:39.443Z,0.87
2023-01-09T15:37:41.285Z,1.10
2023-01-09T15:42:01.433Z,0.83
2023-01-09T15:46:03.242Z,0.93
2023-01-09T15:50:05.839Z,0.93
2023-01-09T15:54:29.780Z,1.10
2023-01-09T15:58:39.188Z,1.50
2023-01-09T16:03:04.888Z,1.30
2023-01-09T16:07:15.386Z,1.83
2023-01-09T16:11:30.158Z,1.43
2023-01-09T16:15:33.576Z,1.40
2023-01-09T16:19:41.393Z,1.50
2023-01-09T16:23:44.499Z,1.93
2023-01-09T16:27:46.335Z,2.27
2023-01-09T16:31:48.136Z,2.20
2023-01-09T16:35:50.720Z,1.87
2023-01-09T16:40:24.056Z,1.30
2023-01-09T16:44:25.949Z,1.87
2023-01-09T16:48:28.162Z,1.80
2023-01-09T16:52:29.980Z,1.80
2023-01-09T16:56:33.181Z,2.60
2023-01-09T17:00:35.021Z,2.73
2023-01-09T17:04:36.773Z,2.47
2023-01-09T17:08:38.518Z,2.07
2023-01-09T17:12:42.182Z,1.87
2023-01-09T17:16:46.101Z,1.97
2023-01-09T17:20:53.526Z,1.93
2023-01-09T17:25:13.933Z,1.80
2023-01-09T17:29:18.421Z,1.57
2023-01-09T17:33:20.438Z,1.90
2023-01-09T17:37:22.736Z,1.30
2023-01-09T17:41:32.616Z,1.87
2023-01-09T17:45:38.399Z,1.70
2023-01-09T17:49:41.772Z,1.30
2023-01-09T17:53:43.606Z,1.70
2023-01-09T17:57:54.979Z,1.50
2023-01-09T18:02:59.009Z,2.03
2023-01-09T18:07:03.645Z,3.27
2023-01-09T18:11:10.298Z,3.83
2023-01-09T18:15:12.265Z,4.90
2023-01-09T18:19:17.474Z,4.30
2023-01-09T18:23:25.780Z,3.67
2023-01-09T18:27:27.775Z,3.17
2023-01-09T18:31:35.632Z,2.73
2023-01-09T18:35:46.461Z,2.80
2023-01-09T18:39:50.770Z,2.10
2023-01-09T18:43:57.732Z,2.57
2023-01-09T18:48:03.776Z,2.30
2023-01-09T18:52:08.785Z,2.60
2023-01-09T18:56:12.922Z,2.27
2023-01-09T19:00:28.266Z,1.80
2023-01-09T19:04:33.134Z,1.90
2023-01-09T19:08:35.892Z,2.30
2023-01-09T19:12:45.672Z,1.97
2023-01-09T19:16:48.063Z,1.80
2023-01-09T19:20:58.562Z,1.63
2023-01-09T19:25:14.457Z,1.07
2023-01-09T19:29:30.657Z,1.57
2023-01-09T19:33:37.863Z,1.40
2023-01-09T19:37:40.133Z,1.50
2023-01-09T19:46:42.914Z,1.30
2023-01-09T19:50:53.012Z,1.57
2023-01-09T19:54:55.185Z,1.47
2023-01-09T20:04:13.880Z,1.07
2023-01-09T20:08:17.402Z,0.90
2023-01-09T20:12:21.549Z,1.10
2023-01-09T20:16:31.022Z,0.97
2023-01-09T20:20:38.072Z,0.80
2023-01-09T20:24:50.139Z,0.90
2023-01-09T20:28:52.967Z,1.10
2023-01-09T20:33:00.540Z,1.30
2023-01-09T20:37:04.843Z,1.07
2023-01-09T20:41:12.675Z,1.23
2023-01-09T20:45:17.719Z,0.93
2023-01-09T20:49:19.784Z,0.90
2023-01-09T20:53:23.993Z,0.90
2023-01-09T20:57:25.948Z,0.90
2023-01-09T21:01:28.128Z,0.90
2023-01-09T21:05:29.984Z,1.10
2023-01-09T21:09:31.905Z,1.30
2023-01-09T21:13:33.708Z,1.07
2023-01-09T21:17:39.809Z,1.00
2023-01-09T21:21:41.614Z,1.30
2023-01-09T21:25:47.445Z,1.27
2023-01-09T21:29:54.282Z,1.13
2023-01-09T21:33:56.308Z,1.00
2023-01-09T21:37:58.270Z,0.90
2023-01-09T21:42:18.435Z,1.07
2023-01-09T21:46:38.671Z,1.10
2023-01-09T21:50:41.227Z,0.70
2023-01-09T21:54:43.178Z,0.93
2023-01-09T21:58:44.956Z,1.10
2023-01-09T22:02:46.773Z,0.80
2023-01-09T22:06:48.576Z,0.80
2023-01-09T22:10:58.843Z,0.97
2023-01-09T22:15:00.572Z,1.20
2023-01-09T22:19:02.495Z,0.93
2023-01-09T22:23:04.213Z,0.80
2023-01-09T22:27:06.085Z,0.90
2023-01-09T22:31:13.866Z,1.07
2023-01-09T22:35:15.823Z,0.97
2023-01-09T22:39:18.853Z,1.13
2023-01-09T22:43:20.592Z,1.37
2023-01-09T22:47:22.765Z,1.23
2023-01-09T22:51:24.699Z,1.20
2023-01-09T22:55:26.630Z,1.00
2023-01-09T22:59:28.998Z,1.30
2023-01-09T23:03:31.536Z,1.27
2023-01-09T23:07:33.345Z,1.20
2023-01-09T23:11:53.488Z,1.33
2023-01-09T23:15:55.217Z,1.20
2023-01-09T23:19:56.943Z,1.40
2023-01-09T23:23:58.680Z,0.90
2023-01-09T23:28:00.449Z,1.30
2023-01-09T23:32:02.271Z,1.27
2023-01-09T23:36:04.526Z,1.30
2023-01-09T23:40:06.833Z,1.40
2023-01-09T23:44:08.770Z,0.97
2023-01-09T23:48:15.106Z,1.30
2023-01-09T23:52:17.018Z,1.10
2023-01-09T23:56:18.733Z,1.20
